Aviation Digital Data Service (ADDS)

Output produced by TAFs form (1913 UTC 19 July 2018)
found at http://www.aviationweather.gov/adds/tafs/
 
KTCL 191853Z 00000KT 10SM SCT034 26/23 A2993 RMK AO2 RAE43 SLP133 P0000 T02610233
KTCL 191739Z 1918/2018 VRB04KT 6SM -RA BR SCT006 BKN050 
     FM192000 VRB05KT P6SM BKN150 
     FM200000 00000KT P6SM FEW050 BKN250